Terminal Aerodrome Forecast
Issued by NWS Sioux Falls, SD

Home | Current Version | Previous Version | Graphics & Text | Print | Product List | Glossary On
Versions: 1 2 3 4 5 6 7 8 9 10 11 12 13 14 15
000
FTUS43 KFSD 190259 AAB
TAFHON
TAF AMD
KHON 190259Z 1903/1924 VRB04KT 4SM BR SCT015 OVC030
      TEMPO 1903/1905 -SHRA BKN015
     FM190800 29010KT P6SM VCSH BKN022
     FM191200 31013KT P6SM BKN030
     FM191500 34023G34KT P6SM BKN050=

USA.gov is the U.S. government's official web portal to all federal, state and local government web resources and services.